sensor_id;sensor_type;location;lat;lon;timestamp;P1;durP1;ratioP1;P2;durP2;ratioP2
80272;SDS011;69574;45.328;9.598;2023-06-24T00:02:13;21.30;;;13.70;;
80272;SDS011;69574;45.328;9.598;2023-06-24T00:04:39;16.48;;;12.23;;
80272;SDS011;69574;45.328;9.598;2023-06-24T00:07:04;17.00;;;11.80;;
80272;SDS011;69574;45.328;9.598;2023-06-24T00:09:30;18.08;;;12.20;;
80272;SDS011;69574;45.328;9.598;2023-06-24T00:11:56;22.27;;;12.55;;
80272;SDS011;69574;45.328;9.598;2023-06-24T00:14:25;18.65;;;13.48;;
80272;SDS011;69574;45.328;9.598;2023-06-24T00:16:51;21.83;;;13.48;;
80272;SDS011;69574;45.328;9.598;2023-06-24T00:19:24;19.42;;;12.88;;
80272;SDS011;69574;45.328;9.598;2023-06-24T00:21:51;18.38;;;12.15;;
80272;SDS011;69574;45.328;9.598;2023-06-24T00:24:17;18.23;;;12.30;;
80272;SDS011;69574;45.328;9.598;2023-06-24T00:26:42;18.70;;;11.73;;
80272;SDS011;69574;45.328;9.598;2023-06-24T00:29:08;19.23;;;11.95;;
80272;SDS011;69574;45.328;9.598;2023-06-24T00:31:35;16.05;;;12.00;;
80272;SDS011;69574;45.328;9.598;2023-06-24T00:34:01;16.08;;;12.00;;
80272;SDS011;69574;45.328;9.598;2023-06-24T00:36:27;18.30;;;12.10;;
80272;SDS011;69574;45.328;9.598;2023-06-24T00:38:52;19.33;;;13.52;;
80272;SDS011;69574;45.328;9.598;2023-06-24T00:41:21;21.00;;;12.70;;
80272;SDS011;69574;45.328;9.598;2023-06-24T00:43:46;20.52;;;12.73;;
80272;SDS011;69574;45.328;9.598;2023-06-24T00:46:12;19.40;;;12.88;;
80272;SDS011;69574;45.328;9.598;2023-06-24T00:48:40;23.88;;;13.35;;
80272;SDS011;69574;45.328;9.598;2023-06-24T00:51:06;18.63;;;13.45;;
80272;SDS011;69574;45.328;9.598;2023-06-24T00:53:31;16.85;;;12.55;;
80272;SDS011;69574;45.328;9.598;2023-06-24T00:55:57;21.67;;;13.00;;
80272;SDS011;69574;45.328;9.598;2023-06-24T00:58:28;19.90;;;13.77;;
80272;SDS011;69574;45.328;9.598;2023-06-24T01:00:55;18.80;;;13.10;;
80272;SDS011;69574;45.328;9.598;2023-06-24T01:03:22;20.58;;;12.95;;
80272;SDS011;69574;45.328;9.598;2023-06-24T01:05:49;20.73;;;13.38;;
80272;SDS011;69574;45.328;9.598;2023-06-24T01:08:15;21.35;;;13.43;;
80272;SDS011;69574;45.328;9.598;2023-06-24T01:10:41;21.90;;;14.32;;
80272;SDS011;69574;45.328;9.598;2023-06-24T01:13:06;19.50;;;13.55;;
80272;SDS011;69574;45.328;9.598;2023-06-24T01:15:32;21.85;;;14.43;;
80272;SDS011;69574;45.328;9.598;2023-06-24T01:18:00;19.85;;;14.18;;
80272;SDS011;69574;45.328;9.598;2023-06-24T01:20:29;21.58;;;13.95;;
80272;SDS011;69574;45.328;9.598;2023-06-24T01:23:20;25.85;;;14.40;;
80272;SDS011;69574;45.328;9.598;2023-06-24T01:25:55;25.33;;;15.20;;
80272;SDS011;69574;45.328;9.598;2023-06-24T01:28:33;25.98;;;15.00;;
80272;SDS011;69574;45.328;9.598;2023-06-24T01:33:49;20.45;;;14.20;;
80272;SDS011;69574;45.328;9.598;2023-06-24T01:36:15;22.30;;;14.73;;
80272;SDS011;69574;45.328;9.598;2023-06-24T01:41:06;23.53;;;13.63;;
80272;SDS011;69574;45.328;9.598;2023-06-24T01:43:33;21.20;;;14.40;;
80272;SDS011;69574;45.328;9.598;2023-06-24T01:45:59;20.17;;;14.13;;
80272;SDS011;69574;45.328;9.598;2023-06-24T01:48:27;23.15;;;15.13;;
80272;SDS011;69574;45.328;9.598;2023-06-24T01:50:57;26.88;;;15.75;;
80272;SDS011;69574;45.328;9.598;2023-06-24T01:53:23;18.55;;;13.52;;
80272;SDS011;69574;45.328;9.598;2023-06-24T01:55:49;21.13;;;13.32;;
80272;SDS011;69574;45.328;9.598;2023-06-24T02:00:41;19.80;;;13.57;;
80272;SDS011;69574;45.328;9.598;2023-06-24T02:03:07;24.60;;;13.90;;
80272;SDS011;69574;45.328;9.598;2023-06-24T02:05:33;21.08;;;14.23;;
80272;SDS011;69574;45.328;9.598;2023-06-24T02:08:01;21.42;;;13.98;;
80272;SDS011;69574;45.328;9.598;2023-06-24T02:10:28;19.38;;;13.85;;
80272;SDS011;69574;45.328;9.598;2023-06-24T02:12:54;17.85;;;12.55;;
80272;SDS011;69574;45.328;9.598;2023-06-24T02:15:21;21.83;;;13.70;;
80272;SDS011;69574;45.328;9.598;2023-06-24T02:17:48;22.00;;;13.48;;
80272;SDS011;69574;45.328;9.598;2023-06-24T02:20:14;22.98;;;13.63;;
80272;SDS011;69574;45.328;9.598;2023-06-24T02:22:46;18.55;;;13.05;;
80272;SDS011;69574;45.328;9.598;2023-06-24T02:25:24;22.25;;;13.25;;
80272;SDS011;69574;45.328;9.598;2023-06-24T02:27:50;20.40;;;14.07;;
80272;SDS011;69574;45.328;9.598;2023-06-24T02:30:16;24.02;;;13.55;;
80272;SDS011;69574;45.328;9.598;2023-06-24T02:32:42;24.52;;;14.30;;
80272;SDS011;69574;45.328;9.598;2023-06-24T02:35:07;21.27;;;13.98;;
80272;SDS011;69574;45.328;9.598;2023-06-24T02:37:33;24.38;;;13.98;;
80272;SDS011;69574;45.328;9.598;2023-06-24T02:39:59;19.10;;;12.63;;
80272;SDS011;69574;45.328;9.598;2023-06-24T02:42:26;19.55;;;12.98;;
80272;SDS011;69574;45.328;9.598;2023-06-24T02:44:52;22.45;;;13.27;;
80272;SDS011;69574;45.328;9.598;2023-06-24T02:47:18;26.77;;;14.48;;
80272;SDS011;69574;45.328;9.598;2023-06-24T02:49:44;22.35;;;13.65;;
80272;SDS011;69574;45.328;9.598;2023-06-24T02:52:11;23.00;;;13.52;;
80272;SDS011;69574;45.328;9.598;2023-06-24T02:54:37;23.00;;;13.45;;
80272;SDS011;69574;45.328;9.598;2023-06-24T02:57:05;22.52;;;13.95;;
80272;SDS011;69574;45.328;9.598;2023-06-24T02:59:33;24.05;;;13.90;;
80272;SDS011;69574;45.328;9.598;2023-06-24T03:01:58;23.77;;;14.45;;
80272;SDS011;69574;45.328;9.598;2023-06-24T03:04:25;19.55;;;12.43;;
80272;SDS011;69574;45.328;9.598;2023-06-24T03:06:50;22.70;;;13.00;;
80272;SDS011;69574;45.328;9.598;2023-06-24T03:09:17;19.40;;;12.60;;
80272;SDS011;69574;45.328;9.598;2023-06-24T03:11:44;21.63;;;13.90;;
80272;SDS011;69574;45.328;9.598;2023-06-24T03:14:10;20.95;;;14.73;;
80272;SDS011;69574;45.328;9.598;2023-06-24T03:16:39;19.08;;;13.48;;
80272;SDS011;69574;45.328;9.598;2023-06-24T03:19:05;21.58;;;13.70;;
80272;SDS011;69574;45.328;9.598;2023-06-24T03:21:30;17.95;;;13.30;;
80272;SDS011;69574;45.328;9.598;2023-06-24T03:23:56;18.88;;;12.43;;
80272;SDS011;69574;45.328;9.598;2023-06-24T03:26:24;18.52;;;12.15;;
80272;SDS011;69574;45.328;9.598;2023-06-24T03:28:50;19.55;;;12.48;;
80272;SDS011;69574;45.328;9.598;2023-06-24T03:31:15;17.55;;;11.90;;
80272;SDS011;69574;45.328;9.598;2023-06-24T03:33:43;19.38;;;11.82;;
80272;SDS011;69574;45.328;9.598;2023-06-24T03:36:10;18.98;;;12.32;;
80272;SDS011;69574;45.328;9.598;2023-06-24T03:38:36;22.70;;;12.75;;
80272;SDS011;69574;45.328;9.598;2023-06-24T03:41:02;25.48;;;14.13;;
80272;SDS011;69574;45.328;9.598;2023-06-24T03:43:27;22.38;;;13.95;;
80272;SDS011;69574;45.328;9.598;2023-06-24T03:45:53;21.58;;;12.88;;
80272;SDS011;69574;45.328;9.598;2023-06-24T03:48:20;18.08;;;12.50;;
80272;SDS011;69574;45.328;9.598;2023-06-24T03:50:47;21.10;;;13.13;;
80272;SDS011;69574;45.328;9.598;2023-06-24T03:53:13;22.58;;;12.85;;
80272;SDS011;69574;45.328;9.598;2023-06-24T03:55:38;21.63;;;14.88;;
80272;SDS011;69574;45.328;9.598;2023-06-24T03:58:04;23.38;;;15.00;;
80272;SDS011;69574;45.328;9.598;2023-06-24T04:00:30;23.42;;;13.93;;
80272;SDS011;69574;45.328;9.598;2023-06-24T04:02:55;22.75;;;14.93;;
80272;SDS011;69574;45.328;9.598;2023-06-24T04:05:21;23.55;;;15.40;;
80272;SDS011;69574;45.328;9.598;2023-06-24T04:07:48;68.88;;;19.10;;
80272;SDS011;69574;45.328;9.598;2023-06-24T04:10:16;32.90;;;16.67;;
80272;SDS011;69574;45.328;9.598;2023-06-24T04:15:08;20.80;;;13.83;;
80272;SDS011;69574;45.328;9.598;2023-06-24T04:17:33;22.90;;;14.20;;
80272;SDS011;69574;45.328;9.598;2023-06-24T04:19:59;22.05;;;13.82;;
80272;SDS011;69574;45.328;9.598;2023-06-24T04:22:25;21.30;;;14.65;;
80272;SDS011;69574;45.328;9.598;2023-06-24T04:24:52;29.73;;;15.43;;
80272;SDS011;69574;45.328;9.598;2023-06-24T04:27:18;23.63;;;15.75;;
80272;SDS011;69574;45.328;9.598;2023-06-24T04:29:43;27.23;;;15.63;;
80272;SDS011;69574;45.328;9.598;2023-06-24T04:32:09;24.02;;;16.20;;
80272;SDS011;69574;45.328;9.598;2023-06-24T04:34:34;38.03;;;18.67;;
80272;SDS011;69574;45.328;9.598;2023-06-24T04:37:00;44.38;;;18.92;;
80272;SDS011;69574;45.328;9.598;2023-06-24T04:39:26;49.78;;;17.83;;
80272;SDS011;69574;45.328;9.598;2023-06-24T04:41:53;41.85;;;17.05;;
80272;SDS011;69574;45.328;9.598;2023-06-24T04:44:18;32.08;;;16.30;;
80272;SDS011;69574;45.328;9.598;2023-06-24T04:46:45;25.10;;;15.40;;
80272;SDS011;69574;45.328;9.598;2023-06-24T04:49:11;22.58;;;14.10;;
80272;SDS011;69574;45.328;9.598;2023-06-24T04:51:36;26.23;;;16.33;;
80272;SDS011;69574;45.328;9.598;2023-06-24T04:54:02;26.88;;;17.27;;
80272;SDS011;69574;45.328;9.598;2023-06-24T04:56:29;28.17;;;18.98;;
80272;SDS011;69574;45.328;9.598;2023-06-24T04:58:56;30.45;;;17.25;;
80272;SDS011;69574;45.328;9.598;2023-06-24T05:01:22;36.03;;;17.48;;
80272;SDS011;69574;45.328;9.598;2023-06-24T05:03:47;26.80;;;18.05;;
80272;SDS011;69574;45.328;9.598;2023-06-24T05:06:13;29.63;;;18.33;;
80272;SDS011;69574;45.328;9.598;2023-06-24T05:08:39;30.35;;;17.23;;
80272;SDS011;69574;45.328;9.598;2023-06-24T05:11:04;27.10;;;18.30;;
80272;SDS011;69574;45.328;9.598;2023-06-24T05:13:30;28.30;;;18.35;;
80272;SDS011;69574;45.328;9.598;2023-06-24T05:15:58;28.00;;;18.20;;
80272;SDS011;69574;45.328;9.598;2023-06-24T05:18:23;27.73;;;18.77;;
80272;SDS011;69574;45.328;9.598;2023-06-24T05:20:49;25.08;;;17.42;;
80272;SDS011;69574;45.328;9.598;2023-06-24T05:23:15;22.05;;;17.15;;
80272;SDS011;69574;45.328;9.598;2023-06-24T05:25:40;25.63;;;18.40;;
80272;SDS011;69574;45.328;9.598;2023-06-24T05:28:06;25.55;;;19.08;;
80272;SDS011;69574;45.328;9.598;2023-06-24T05:30:31;25.27;;;17.27;;
80272;SDS011;69574;45.328;9.598;2023-06-24T05:32:59;25.33;;;18.15;;
80272;SDS011;69574;45.328;9.598;2023-06-24T05:35:24;22.75;;;14.85;;
80272;SDS011;69574;45.328;9.598;2023-06-24T05:37:50;20.33;;;15.00;;
80272;SDS011;69574;45.328;9.598;2023-06-24T05:40:16;22.05;;;15.05;;
80272;SDS011;69574;45.328;9.598;2023-06-24T05:42:41;21.33;;;14.95;;
80272;SDS011;69574;45.328;9.598;2023-06-24T05:45:07;19.83;;;14.77;;
80272;SDS011;69574;45.328;9.598;2023-06-24T05:47:33;20.75;;;15.15;;
80272;SDS011;69574;45.328;9.598;2023-06-24T05:50:00;25.42;;;15.60;;
80272;SDS011;69574;45.328;9.598;2023-06-24T05:52:26;22.25;;;15.68;;
80272;SDS011;69574;45.328;9.598;2023-06-24T05:54:54;20.55;;;14.15;;
80272;SDS011;69574;45.328;9.598;2023-06-24T05:57:21;22.70;;;15.88;;
80272;SDS011;69574;45.328;9.598;2023-06-24T05:59:47;25.48;;;16.60;;
80272;SDS011;69574;45.328;9.598;2023-06-24T06:02:12;23.42;;;15.43;;
80272;SDS011;69574;45.328;9.598;2023-06-24T06:04:38;25.25;;;15.38;;
80272;SDS011;69574;45.328;9.598;2023-06-24T06:10:08;22.67;;;15.05;;
80272;SDS011;69574;45.328;9.598;2023-06-24T06:12:34;35.42;;;16.35;;
80272;SDS011;69574;45.328;9.598;2023-06-24T06:15:00;20.67;;;14.90;;
80272;SDS011;69574;45.328;9.598;2023-06-24T06:17:25;30.65;;;15.55;;
80272;SDS011;69574;45.328;9.598;2023-06-24T06:19:51;25.10;;;14.90;;
80272;SDS011;69574;45.328;9.598;2023-06-24T06:22:17;21.15;;;15.70;;
80272;SDS011;69574;45.328;9.598;2023-06-24T06:24:43;23.00;;;15.55;;
80272;SDS011;69574;45.328;9.598;2023-06-24T06:27:10;20.45;;;16.08;;
80272;SDS011;69574;45.328;9.598;2023-06-24T06:29:39;20.70;;;15.55;;
80272;SDS011;69574;45.328;9.598;2023-06-24T06:32:05;20.38;;;16.25;;
80272;SDS011;69574;45.328;9.598;2023-06-24T06:34:30;21.17;;;15.90;;
80272;SDS011;69574;45.328;9.598;2023-06-24T06:36:56;23.88;;;16.35;;
80272;SDS011;69574;45.328;9.598;2023-06-24T06:39:22;22.13;;;16.45;;
80272;SDS011;69574;45.328;9.598;2023-06-24T06:41:47;21.67;;;15.82;;
80272;SDS011;69574;45.328;9.598;2023-06-24T06:44:14;20.45;;;16.17;;
80272;SDS011;69574;45.328;9.598;2023-06-24T06:46:40;21.92;;;14.82;;
80272;SDS011;69574;45.328;9.598;2023-06-24T06:49:06;20.80;;;14.50;;
80272;SDS011;69574;45.328;9.598;2023-06-24T06:51:31;19.10;;;14.27;;
80272;SDS011;69574;45.328;9.598;2023-06-24T06:53:57;20.40;;;13.48;;
80272;SDS011;69574;45.328;9.598;2023-06-24T06:56:23;20.08;;;14.05;;
80272;SDS011;69574;45.328;9.598;2023-06-24T06:58:49;18.23;;;13.20;;
80272;SDS011;69574;45.328;9.598;2023-06-24T07:01:17;18.65;;;12.70;;
80272;SDS011;69574;45.328;9.598;2023-06-24T07:03:42;17.30;;;13.23;;
80272;SDS011;69574;45.328;9.598;2023-06-24T07:06:08;18.27;;;12.35;;
80272;SDS011;69574;45.328;9.598;2023-06-24T07:08:33;15.13;;;10.68;;
80272;SDS011;69574;45.328;9.598;2023-06-24T07:10:59;14.13;;;9.38;;
80272;SDS011;69574;45.328;9.598;2023-06-24T07:13:25;12.45;;;8.88;;
80272;SDS011;69574;45.328;9.598;2023-06-24T07:15:50;11.52;;;8.13;;
80272;SDS011;69574;45.328;9.598;2023-06-24T07:18:20;13.77;;;8.32;;
80272;SDS011;69574;45.328;9.598;2023-06-24T07:20:46;15.45;;;10.05;;
80272;SDS011;69574;45.328;9.598;2023-06-24T07:23:11;12.07;;;8.73;;
80272;SDS011;69574;45.328;9.598;2023-06-24T07:25:37;15.48;;;8.80;;
80272;SDS011;69574;45.328;9.598;2023-06-24T07:28:03;12.57;;;9.60;;
80272;SDS011;69574;45.328;9.598;2023-06-24T07:30:28;13.23;;;9.40;;
80272;SDS011;69574;45.328;9.598;2023-06-24T07:35:49;13.27;;;9.30;;
80272;SDS011;69574;45.328;9.598;2023-06-24T07:38:15;11.18;;;8.13;;
80272;SDS011;69574;45.328;9.598;2023-06-24T07:40:40;11.05;;;8.00;;
80272;SDS011;69574;45.328;9.598;2023-06-24T07:43:06;10.93;;;8.48;;
80272;SDS011;69574;45.328;9.598;2023-06-24T07:45:32;11.50;;;8.63;;
80272;SDS011;69574;45.328;9.598;2023-06-24T07:47:57;13.88;;;9.15;;
80272;SDS011;69574;45.328;9.598;2023-06-24T07:52:51;13.30;;;8.73;;
80272;SDS011;69574;45.328;9.598;2023-06-24T07:55:16;11.85;;;8.88;;
80272;SDS011;69574;45.328;9.598;2023-06-24T07:57:44;12.73;;;8.52;;
80272;SDS011;69574;45.328;9.598;2023-06-24T08:00:10;14.20;;;8.50;;
80272;SDS011;69574;45.328;9.598;2023-06-24T08:02:36;21.55;;;9.27;;
80272;SDS011;69574;45.328;9.598;2023-06-24T08:05:02;15.60;;;8.95;;
80272;SDS011;69574;45.328;9.598;2023-06-24T08:07:29;14.07;;;9.27;;
80272;SDS011;69574;45.328;9.598;2023-06-24T08:09:57;14.10;;;9.68;;
80272;SDS011;69574;45.328;9.598;2023-06-24T08:12:23;15.40;;;9.05;;
80272;SDS011;69574;45.328;9.598;2023-06-24T08:14:48;17.13;;;9.75;;
80272;SDS011;69574;45.328;9.598;2023-06-24T08:17:14;15.48;;;8.18;;
80272;SDS011;69574;45.328;9.598;2023-06-24T08:19:39;14.13;;;8.25;;
80272;SDS011;69574;45.328;9.598;2023-06-24T08:22:05;11.02;;;7.15;;
80272;SDS011;69574;45.328;9.598;2023-06-24T08:24:31;8.63;;;5.97;;
80272;SDS011;69574;45.328;9.598;2023-06-24T08:26:58;11.20;;;5.43;;
80272;SDS011;69574;45.328;9.598;2023-06-24T08:29:24;6.70;;;4.43;;
80272;SDS011;69574;45.328;9.598;2023-06-24T08:31:50;7.40;;;4.35;;
80272;SDS011;69574;45.328;9.598;2023-06-24T08:34:15;11.32;;;4.32;;
80272;SDS011;69574;45.328;9.598;2023-06-24T08:36:41;10.43;;;4.07;;
80272;SDS011;69574;45.328;9.598;2023-06-24T08:39:07;9.63;;;4.22;;
80272;SDS011;69574;45.328;9.598;2023-06-24T08:41:33;6.75;;;4.10;;
80272;SDS011;69574;45.328;9.598;2023-06-24T08:44:02;32.78;;;5.65;;
80272;SDS011;69574;45.328;9.598;2023-06-24T08:46:28;8.30;;;4.00;;
80272;SDS011;69574;45.328;9.598;2023-06-24T08:48:59;9.45;;;5.07;;
80272;SDS011;69574;45.328;9.598;2023-06-24T08:51:27;7.97;;;4.80;;
80272;SDS011;69574;45.328;9.598;2023-06-24T08:53:54;7.43;;;4.78;;
80272;SDS011;69574;45.328;9.598;2023-06-24T08:56:20;7.63;;;4.53;;
80272;SDS011;69574;45.328;9.598;2023-06-24T08:58:46;6.25;;;4.35;;
80272;SDS011;69574;45.328;9.598;2023-06-24T09:01:13;7.57;;;4.07;;
80272;SDS011;69574;45.328;9.598;2023-06-24T09:03:39;6.75;;;3.38;;
80272;SDS011;69574;45.328;9.598;2023-06-24T09:06:05;6.10;;;3.60;;
80272;SDS011;69574;45.328;9.598;2023-06-24T09:08:30;6.75;;;3.38;;
80272;SDS011;69574;45.328;9.598;2023-06-24T09:10:56;5.40;;;3.50;;
80272;SDS011;69574;45.328;9.598;2023-06-24T09:13:25;5.88;;;3.42;;
80272;SDS011;69574;45.328;9.598;2023-06-24T09:15:53;5.13;;;3.10;;
80272;SDS011;69574;45.328;9.598;2023-06-24T09:18:20;5.15;;;3.05;;
80272;SDS011;69574;45.328;9.598;2023-06-24T09:20:46;7.82;;;3.15;;
80272;SDS011;69574;45.328;9.598;2023-06-24T09:23:15;13.73;;;3.35;;
80272;SDS011;69574;45.328;9.598;2023-06-24T09:25:41;5.80;;;3.28;;
80272;SDS011;69574;45.328;9.598;2023-06-24T09:28:07;4.65;;;2.40;;
80272;SDS011;69574;45.328;9.598;2023-06-24T09:30:33;7.20;;;2.58;;
80272;SDS011;69574;45.328;9.598;2023-06-24T09:32:58;6.55;;;2.92;;
80272;SDS011;69574;45.328;9.598;2023-06-24T09:35:28;5.22;;;2.90;;
80272;SDS011;69574;45.328;9.598;2023-06-24T09:38:00;5.22;;;2.88;;
80272;SDS011;69574;45.328;9.598;2023-06-24T09:40:25;5.45;;;2.90;;
80272;SDS011;69574;45.328;9.598;2023-06-24T09:42:51;19.55;;;3.97;;
80272;SDS011;69574;45.328;9.598;2023-06-24T09:45:24;4.38;;;2.50;;
80272;SDS011;69574;45.328;9.598;2023-06-24T09:47:50;23.25;;;4.00;;
80272;SDS011;69574;45.328;9.598;2023-06-24T09:50:16;7.95;;;2.80;;
80272;SDS011;69574;45.328;9.598;2023-06-24T09:52:43;5.78;;;2.60;;
80272;SDS011;69574;45.328;9.598;2023-06-24T09:55:09;6.82;;;2.65;;
80272;SDS011;69574;45.328;9.598;2023-06-24T09:57:35;7.15;;;2.78;;
80272;SDS011;69574;45.328;9.598;2023-06-24T10:00:02;6.75;;;2.20;;
80272;SDS011;69574;45.328;9.598;2023-06-24T10:02:28;5.63;;;2.60;;
80272;SDS011;69574;45.328;9.598;2023-06-24T10:04:55;5.40;;;2.53;;
80272;SDS011;69574;45.328;9.598;2023-06-24T10:07:21;10.77;;;2.92;;
80272;SDS011;69574;45.328;9.598;2023-06-24T10:09:49;10.07;;;3.10;;
80272;SDS011;69574;45.328;9.598;2023-06-24T10:12:14;9.48;;;2.80;;
80272;SDS011;69574;45.328;9.598;2023-06-24T10:14:40;4.93;;;2.72;;
80272;SDS011;69574;45.328;9.598;2023-06-24T10:42:33;4.53;;;2.33;;
80272;SDS011;69574;45.328;9.598;2023-06-24T10:45:01;15.45;;;3.05;;
80272;SDS011;69574;45.328;9.598;2023-06-24T10:47:32;13.60;;;3.35;;
80272;SDS011;69574;45.328;9.598;2023-06-24T10:50:00;6.78;;;3.15;;
80272;SDS011;69574;45.328;9.598;2023-06-24T10:55:17;5.28;;;2.72;;
80272;SDS011;69574;45.328;9.598;2023-06-24T10:57:54;5.80;;;2.60;;
80272;SDS011;69574;45.328;9.598;2023-06-24T11:00:25;5.82;;;2.92;;
80272;SDS011;69574;45.328;9.598;2023-06-24T11:03:08;8.15;;;2.70;;
80272;SDS011;69574;45.328;9.598;2023-06-24T11:05:41;5.30;;;2.70;;
80272;SDS011;69574;45.328;9.598;2023-06-24T11:08:07;6.38;;;2.75;;
80272;SDS011;69574;45.328;9.598;2023-06-24T11:10:38;7.43;;;2.80;;
80272;SDS011;69574;45.328;9.598;2023-06-24T11:13:12;7.35;;;3.15;;
80272;SDS011;69574;45.328;9.598;2023-06-24T11:15:40;5.63;;;2.80;;
80272;SDS011;69574;45.328;9.598;2023-06-24T11:18:11;5.05;;;3.17;;
80272;SDS011;69574;45.328;9.598;2023-06-24T11:20:41;5.43;;;2.95;;
80272;SDS011;69574;45.328;9.598;2023-06-24T11:23:09;5.03;;;3.10;;
80272;SDS011;69574;45.328;9.598;2023-06-24T11:25:44;7.15;;;3.08;;
80272;SDS011;69574;45.328;9.598;2023-06-24T11:28:19;5.70;;;2.95;;
80272;SDS011;69574;45.328;9.598;2023-06-24T11:30:45;4.28;;;2.35;;
80272;SDS011;69574;45.328;9.598;2023-06-24T11:33:11;12.75;;;3.40;;
80272;SDS011;69574;45.328;9.598;2023-06-24T11:35:41;22.92;;;4.35;;
80272;SDS011;69574;45.328;9.598;2023-06-24T11:38:09;12.45;;;3.13;;
80272;SDS011;69574;45.328;9.598;2023-06-24T11:40:48;5.03;;;3.25;;
80272;SDS011;69574;45.328;9.598;2023-06-24T11:43:17;4.80;;;2.90;;
80272;SDS011;69574;45.328;9.598;2023-06-24T11:45:53;5.18;;;2.83;;
80272;SDS011;69574;45.328;9.598;2023-06-24T11:48:20;5.20;;;3.00;;
80272;SDS011;69574;45.328;9.598;2023-06-24T11:50:52;5.07;;;2.70;;
80272;SDS011;69574;45.328;9.598;2023-06-24T11:53:22;4.88;;;2.83;;
80272;SDS011;69574;45.328;9.598;2023-06-24T11:56:11;4.13;;;2.65;;
80272;SDS011;69574;45.328;9.598;2023-06-24T11:58:46;5.65;;;2.80;;
80272;SDS011;69574;45.328;9.598;2023-06-24T12:01:16;5.10;;;3.10;;
80272;SDS011;69574;45.328;9.598;2023-06-24T12:03:42;11.40;;;3.83;;
80272;SDS011;69574;45.328;9.598;2023-06-24T12:06:07;5.68;;;2.88;;
80272;SDS011;69574;45.328;9.598;2023-06-24T12:08:35;7.80;;;2.90;;
80272;SDS011;69574;45.328;9.598;2023-06-24T12:11:03;4.70;;;3.00;;
80272;SDS011;69574;45.328;9.598;2023-06-24T12:13:34;5.95;;;2.90;;
80272;SDS011;69574;45.328;9.598;2023-06-24T12:19:39;7.28;;;2.90;;
80272;SDS011;69574;45.328;9.598;2023-06-24T12:22:35;5.38;;;3.30;;
80272;SDS011;69574;45.328;9.598;2023-06-24T12:47:11;5.50;;;2.70;;
80272;SDS011;69574;45.328;9.598;2023-06-24T12:49:53;8.13;;;3.10;;
80272;SDS011;69574;45.328;9.598;2023-06-24T12:54:42;5.60;;;2.65;;
80272;SDS011;69574;45.328;9.598;2023-06-24T13:28:42;4.43;;;2.95;;
80272;SDS011;69574;45.328;9.598;2023-06-24T13:33:10;5.93;;;2.80;;
80272;SDS011;69574;45.328;9.598;2023-06-24T13:40:28;3.70;;;2.40;;
80272;SDS011;69574;45.328;9.598;2023-06-24T13:48:59;4.63;;;3.00;;
80272;SDS011;69574;45.328;9.598;2023-06-24T13:51:27;5.63;;;3.20;;
80272;SDS011;69574;45.328;9.598;2023-06-24T13:53:54;5.05;;;3.08;;
80272;SDS011;69574;45.328;9.598;2023-06-24T13:56:26;6.28;;;2.80;;
80272;SDS011;69574;45.328;9.598;2023-06-24T13:58:54;4.15;;;2.63;;
80272;SDS011;69574;45.328;9.598;2023-06-24T14:01:36;7.18;;;2.75;;
80272;SDS011;69574;45.328;9.598;2023-06-24T14:04:11;4.25;;;3.03;;
80272;SDS011;69574;45.328;9.598;2023-06-24T14:06:40;5.30;;;2.92;;
80272;SDS011;69574;45.328;9.598;2023-06-24T14:09:16;8.15;;;3.20;;
80272;SDS011;69574;45.328;9.598;2023-06-24T14:12:26;4.53;;;2.70;;
